Easter N — 3FMO7 — position and weather

sailwx.info

Track history (hours):
 
Tides and Currents Weather Stations Pressure Air Temp Water Temp Dewpoint Dewpoint Depression Visibility Wind Speed Wind Dir Waves Ship Positions

Easter N

Last reported at 2018-Jun-22 07:52 UTC. Time now 2018-Jun-22 20:24 UTC.
Position N 29°44' W 095°13'.

Length 197 m; draft 11.2 m.

Type: Cargo ship. MMSI: 352466000.

Date/timePositionNaut miles runAvg speedWind from/ knotsBaromVisibWave heightAir tempDewpointWater temp
2018-Jun-22 07:52N 29°44' W 095°13'0 0.0
2018-Jun-22 06:16N 29°44' W 095°13'0 0.0
2018-Jun-22 05:49N 29°44' W 095°13'0 0.0
2018-Jun-22 05:25N 29°44' W 095°13'0 0.0
2018-Jun-22 04:58N 29°44' W 095°13'1 2.6
2018-Jun-22 04:30N 29°44' W 095°12'2 5.0
2018-Jun-22 04:00N 29°44' W 095°09'3 5.1
2018-Jun-22 03:30N 29°45' W 095°06'2 4.6
2018-Jun-22 03:00N 29°44' W 095°04'3 6.0
2018-Jun-22 02:30N 29°42' W 095°01'4 8.1
2018-Jun-22 02:00N 29°39' W 094°58'5 9.8
2018-Jun-22 01:30N 29°35' W 094°56'510.5
2018-Jun-22 01:00N 29°30' W 094°52'510.5
2018-Jun-22 00:30N 29°26' W 094°50'5 9.9
2018-Jun-22 00:00N 29°21' W 094°47'5 9.8
2018-Jun-21 23:30N 29°21' W 094°42'611.2
2018-Jun-21 23:00N 29°18' W 094°36'510.1
2018-Jun-21 22:30N 29°15' W 094°31'2 3.0
2018-Jun-21 21:59N 29°15' W 094°29'0 0.1
2018-Jun-21 21:29N 29°15' W 094°29'0 0.0
2018-Jun-21 20:59N 29°15' W 094°29'0 0.0
2018-Jun-21 20:26N 29°15' W 094°30'0 0.0
2018-Jun-21 19:59N 29°15' W 094°30'0 0.0
2018-Jun-21 19:26N 29°15' W 094°30'0 0.0
2018-Jun-21 18:53N 29°15' W 094°30'0 0.1
2018-Jun-21 18:26N 29°15' W 094°29'0 0.0
2018-Jun-21 17:56N 29°15' W 094°29'0 0.0
2018-Jun-21 15:44N 29°15' W 094°29'0 0.0
2018-Jun-21 14:56N 29°15' W 094°29'0 0.1
2018-Jun-21 13:30N 29°15' W 094°30'1 2.0
2018-Jun-21 13:00N 29°14' W 094°30'3 6.2
2018-Jun-21 12:27N 29°12' W 094°27'510.6
2018-Jun-21 11:59N 29°07' W 094°25'813.4
2018-Jun-21 11:23N 28°59' W 094°25'713.5
2018-Jun-21 10:54N 28°53' W 094°25'613.5
2018-Jun-21 10:26N 28°46' W 094°25'  
2018-Jun-16 20:00N 09°35' W 079°57'611.6
2018-Jun-16 19:30N 09°29' W 079°56'611.7
2018-Jun-16 19:00N 09°24' W 079°55'4 8.5
2018-Jun-16 18:30N 09°19' W 079°55'3 5.1
2018-Jun-16 17:59N 09°17' W 079°55'0 0.5
2018-Jun-16 17:30N 09°16' W 079°55'0 0.4
2018-Jun-16 17:00N 09°16' W 079°55'0 0.5
2018-Jun-16 16:30N 09°16' W 079°55'0 0.5
2018-Jun-16 16:00N 09°16' W 079°55'1 3.0
2018-Jun-16 15:30N 09°14' W 079°55'2 4.9
2018-Jun-16 15:00N 09°12' W 079°54'  
Track history (hours):
 
Tides and Currents Weather Stations Pressure Air Temp Water Temp Dewpoint Dewpoint Depression Visibility Wind Speed Wind Dir Waves Ship Positions

Easter N

Last reported at 2018-Jun-22 07:52 UTC. Time now 2018-Jun-22 20:24 UTC.
Position N 29°44' W 095°13'.

Length 197 m; draft 11.2 m.

Type: Cargo ship. MMSI: 352466000.

Date/timePositionNaut miles runAvg speedWind from/ knotsBaromVisibWave heightAir tempDewpointWater temp
2018-Jun-22 07:52N 29°44' W 095°13'0 0.0
2018-Jun-22 06:16N 29°44' W 095°13'0 0.0
2018-Jun-22 05:49N 29°44' W 095°13'0 0.0
2018-Jun-22 05:25N 29°44' W 095°13'0 0.0
2018-Jun-22 04:58N 29°44' W 095°13'1 2.6
2018-Jun-22 04:30N 29°44' W 095°12'2 5.0
2018-Jun-22 04:00N 29°44' W 095°09'3 5.1
2018-Jun-22 03:30N 29°45' W 095°06'2 4.6
2018-Jun-22 03:00N 29°44' W 095°04'3 6.0
2018-Jun-22 02:30N 29°42' W 095°01'4 8.1
2018-Jun-22 02:00N 29°39' W 094°58'5 9.8
2018-Jun-22 01:30N 29°35' W 094°56'510.5
2018-Jun-22 01:00N 29°30' W 094°52'510.5
2018-Jun-22 00:30N 29°26' W 094°50'5 9.9
2018-Jun-22 00:00N 29°21' W 094°47'5 9.8
2018-Jun-21 23:30N 29°21' W 094°42'611.2
2018-Jun-21 23:00N 29°18' W 094°36'510.1
2018-Jun-21 22:30N 29°15' W 094°31'2 3.0
2018-Jun-21 21:59N 29°15' W 094°29'0 0.1
2018-Jun-21 21:29N 29°15' W 094°29'0 0.0
2018-Jun-21 20:59N 29°15' W 094°29'0 0.0
2018-Jun-21 20:26N 29°15' W 094°30'0 0.0
2018-Jun-21 19:59N 29°15' W 094°30'0 0.0
2018-Jun-21 19:26N 29°15' W 094°30'0 0.0
2018-Jun-21 18:53N 29°15' W 094°30'0 0.1
2018-Jun-21 18:26N 29°15' W 094°29'0 0.0
2018-Jun-21 17:56N 29°15' W 094°29'0 0.0
2018-Jun-21 15:44N 29°15' W 094°29'0 0.0
2018-Jun-21 14:56N 29°15' W 094°29'0 0.1
2018-Jun-21 13:30N 29°15' W 094°30'1 2.0
2018-Jun-21 13:00N 29°14' W 094°30'3 6.2
2018-Jun-21 12:27N 29°12' W 094°27'510.6
2018-Jun-21 11:59N 29°07' W 094°25'813.4
2018-Jun-21 11:23N 28°59' W 094°25'713.5
2018-Jun-21 10:54N 28°53' W 094°25'613.5
2018-Jun-21 10:26N 28°46' W 094°25'  
2018-Jun-16 20:00N 09°35' W 079°57'611.6
2018-Jun-16 19:30N 09°29' W 079°56'611.7
2018-Jun-16 19:00N 09°24' W 079°55'4 8.5
2018-Jun-16 18:30N 09°19' W 079°55'3 5.1
2018-Jun-16 17:59N 09°17' W 079°55'0 0.5
2018-Jun-16 17:30N 09°16' W 079°55'0 0.4
2018-Jun-16 17:00N 09°16' W 079°55'0 0.5
2018-Jun-16 16:30N 09°16' W 079°55'0 0.5
2018-Jun-16 16:00N 09°16' W 079°55'1 3.0
2018-Jun-16 15:30N 09°14' W 079°55'2 4.9
2018-Jun-16 15:00N 09°12' W 079°54'  

Dump ship's entire track history